Heidenheimer, TX (76533)

12:13 AM CST on December 29, 2014 (GMT -0600)
KTXTEMPL18 | Change Station
CLOSE
Current Station
Personal Weather Station
Location: Temple, TX
Elevation: 679 ft
Nearby Weather Stations

Elev 679 ft 31.07 °N, 97.37 °W | Updated 6 minutes ago

Clear
Clear
35.5 °F
Feels Like 36 °F
N
1.0
Wind Variable Wind from South
Gusts 3.0 mph

Today
High -- | Low -- °F
--% Chance of Precip.
Yesterday
High -- | Low -- °F
Precip. -- in
7:26 AM 5:36 PM
First Quarter, 55% visible
Pressure 30.15 in
Visibility 10.0 miles
Clouds Clear
Windchill 36 °F
Dew Point 29 °F
Humidity 77%
Rainfall 0.06 in
Snow Depth Not available.
UV 0 out of 12
Pollen 9.00 out of 12
Air Quality Not available.
Flu Activity Not available.
METAR KTPL 290555Z AUTO 00000KT 10SM CLR M01/M06 A3015 RMK AO1 10060 21020 400701020 57003

More Conditions Fewer Conditions

Pressure 30.15 in
Visibility 10.0 miles
Clouds Clear
Windchill 36 °F
Dew Point 29 °F
Humidity 77%
Rainfall 0.06 in
Snow Depth Not available.
UV 0 out of 12
Pollen 9.00 out of 12
Air Quality Not available.
Flu Activity Not available.
METAR KTPL 290555Z AUTO 00000KT 10SM CLR M01/M06 A3015 RMK AO1 10060 21020 400701020 57003

More Conditions Fewer Conditions

10-Day Weather Forecast

Almanac

Astronomy

Dec. 29, 2014 Rise Set
Actual Time
Civil Twilight
Nautical Twilight
Astronomical Twilight
Moon
Length of Visible Light
Length of Day
Tomorrow will be .
, % of the Moon is Illuminated

Today's Extremes

State Highs State Lows

Community

WunderPhotos

Upload Photos

1,781,544 photos uploaded!

WunderBlogs® & News

Nearby

Air Quality

  Air Quality AQ Index Pollutant
Not available.

Snow Depth

Station Depth Elevation

Earthquake Activity

City Distance Mag. Time & Date
Minimum magnitude displayed is 2.5.

Coastal Water Temperatures

Place Temperature

Nearby Weather Stations